sensor_id;sensor_type;location;lat;lon;timestamp;temperature;humidity
2391;DHT22;22957;50.824;4.360;2022-11-14T00:00:10;10.80;99.90
2391;DHT22;22957;50.824;4.360;2022-11-14T00:02:36;10.90;99.90
2391;DHT22;22957;50.824;4.360;2022-11-14T00:05:03;10.60;99.90
2391;DHT22;22957;50.824;4.360;2022-11-14T00:07:30;10.70;99.90
2391;DHT22;22957;50.824;4.360;2022-11-14T00:09:56;10.70;99.90
2391;DHT22;22957;50.824;4.360;2022-11-14T00:12:22;10.80;99.90
2391;DHT22;22957;50.824;4.360;2022-11-14T00:14:47;10.90;99.90
2391;DHT22;22957;50.824;4.360;2022-11-14T00:17:13;10.90;99.90
2391;DHT22;22957;50.824;4.360;2022-11-14T00:19:39;10.70;99.90
2391;DHT22;22957;50.824;4.360;2022-11-14T00:22:04;10.60;99.90
2391;DHT22;22957;50.824;4.360;2022-11-14T00:24:30;10.60;99.90
2391;DHT22;22957;50.824;4.360;2022-11-14T00:26:56;11.10;99.90
2391;DHT22;22957;50.824;4.360;2022-11-14T00:29:21;10.90;99.90
2391;DHT22;22957;50.824;4.360;2022-11-14T00:31:47;10.90;99.90
2391;DHT22;22957;50.824;4.360;2022-11-14T00:34:13;11.10;99.90
2391;DHT22;22957;50.824;4.360;2022-11-14T00:36:38;11.10;99.90
2391;DHT22;22957;50.824;4.360;2022-11-14T00:39:04;11.20;99.90
2391;DHT22;22957;50.824;4.360;2022-11-14T00:41:30;11.10;99.90
2391;DHT22;22957;50.824;4.360;2022-11-14T00:43:55;11.00;99.90
2391;DHT22;22957;50.824;4.360;2022-11-14T00:46:21;11.10;99.90
2391;DHT22;22957;50.824;4.360;2022-11-14T00:48:47;11.10;99.90
2391;DHT22;22957;50.824;4.360;2022-11-14T00:51:12;10.90;99.90
2391;DHT22;22957;50.824;4.360;2022-11-14T00:53:38;10.80;99.90
2391;DHT22;22957;50.824;4.360;2022-11-14T00:56:04;10.60;99.90
2391;DHT22;22957;50.824;4.360;2022-11-14T00:58:30;10.60;99.90
2391;DHT22;22957;50.824;4.360;2022-11-14T01:00:55;11.10;99.90
2391;DHT22;22957;50.824;4.360;2022-11-14T01:03:21;11.00;99.90
2391;DHT22;22957;50.824;4.360;2022-11-14T01:05:49;10.80;99.90
2391;DHT22;22957;50.824;4.360;2022-11-14T01:08:16;10.80;99.90
2391;DHT22;22957;50.824;4.360;2022-11-14T01:10:45;10.90;99.90
2391;DHT22;22957;50.824;4.360;2022-11-14T01:13:11;10.80;99.90
2391;DHT22;22957;50.824;4.360;2022-11-14T01:15:42;10.80;99.90
2391;DHT22;22957;50.824;4.360;2022-11-14T01:18:14;11.00;99.90
2391;DHT22;22957;50.824;4.360;2022-11-14T01:20:41;10.90;99.90
2391;DHT22;22957;50.824;4.360;2022-11-14T01:23:09;11.20;99.90
2391;DHT22;22957;50.824;4.360;2022-11-14T01:25:36;10.80;99.90
2391;DHT22;22957;50.824;4.360;2022-11-14T01:28:11;10.90;99.90
2391;DHT22;22957;50.824;4.360;2022-11-14T01:30:37;10.80;99.90
2391;DHT22;22957;50.824;4.360;2022-11-14T01:33:03;10.90;99.90
2391;DHT22;22957;50.824;4.360;2022-11-14T01:35:30;10.90;99.90
2391;DHT22;22957;50.824;4.360;2022-11-14T01:37:56;11.00;99.90
2391;DHT22;22957;50.824;4.360;2022-11-14T01:40:22;11.00;99.90
2391;DHT22;22957;50.824;4.360;2022-11-14T01:45:52;10.80;99.90
2391;DHT22;22957;50.824;4.360;2022-11-14T01:51:02;10.60;99.90
2391;DHT22;22957;50.824;4.360;2022-11-14T01:53:29;10.50;99.90
2391;DHT22;22957;50.824;4.360;2022-11-14T01:56:00;10.70;99.90
2391;DHT22;22957;50.824;4.360;2022-11-14T01:58:27;10.50;99.90
2391;DHT22;22957;50.824;4.360;2022-11-14T02:00:54;10.50;99.90
2391;DHT22;22957;50.824;4.360;2022-11-14T02:03:20;10.80;99.90
2391;DHT22;22957;50.824;4.360;2022-11-14T02:05:47;10.80;99.90
2391;DHT22;22957;50.824;4.360;2022-11-14T02:08:13;10.50;99.90
2391;DHT22;22957;50.824;4.360;2022-11-14T02:10:40;10.60;99.90
2391;DHT22;22957;50.824;4.360;2022-11-14T02:13:06;10.40;99.90
2391;DHT22;22957;50.824;4.360;2022-11-14T02:15:32;10.40;99.90
2391;DHT22;22957;50.824;4.360;2022-11-14T02:17:58;10.70;99.90
2391;DHT22;22957;50.824;4.360;2022-11-14T02:20:26;10.50;99.90
2391;DHT22;22957;50.824;4.360;2022-11-14T02:22:57;10.50;99.90
2391;DHT22;22957;50.824;4.360;2022-11-14T02:25:23;10.60;99.90
2391;DHT22;22957;50.824;4.360;2022-11-14T02:27:50;10.20;99.90
2391;DHT22;22957;50.824;4.360;2022-11-14T02:30:19;10.70;99.90
2391;DHT22;22957;50.824;4.360;2022-11-14T02:32:45;10.60;99.90
2391;DHT22;22957;50.824;4.360;2022-11-14T02:35:11;10.60;99.90
2391;DHT22;22957;50.824;4.360;2022-11-14T02:37:38;10.60;99.90
2391;DHT22;22957;50.824;4.360;2022-11-14T02:40:04;10.70;99.90
2391;DHT22;22957;50.824;4.360;2022-11-14T02:42:30;10.60;99.90
2391;DHT22;22957;50.824;4.360;2022-11-14T02:44:56;10.40;99.90
2391;DHT22;22957;50.824;4.360;2022-11-14T02:47:21;10.70;99.90
2391;DHT22;22957;50.824;4.360;2022-11-14T02:49:49;10.60;99.90
2391;DHT22;22957;50.824;4.360;2022-11-14T02:52:15;10.50;99.90
2391;DHT22;22957;50.824;4.360;2022-11-14T02:54:41;10.50;99.90
2391;DHT22;22957;50.824;4.360;2022-11-14T02:57:07;10.40;99.90
2391;DHT22;22957;50.824;4.360;2022-11-14T02:59:33;10.50;99.90
2391;DHT22;22957;50.824;4.360;2022-11-14T03:01:58;10.40;99.90
2391;DHT22;22957;50.824;4.360;2022-11-14T03:04:24;10.70;99.90
2391;DHT22;22957;50.824;4.360;2022-11-14T03:06:49;10.30;99.90
2391;DHT22;22957;50.824;4.360;2022-11-14T03:09:15;10.60;99.90
2391;DHT22;22957;50.824;4.360;2022-11-14T03:11:42;10.70;99.90
2391;DHT22;22957;50.824;4.360;2022-11-14T03:14:08;10.70;99.90
2391;DHT22;22957;50.824;4.360;2022-11-14T03:16:34;10.40;99.90
2391;DHT22;22957;50.824;4.360;2022-11-14T03:19:00;10.50;99.90
2391;DHT22;22957;50.824;4.360;2022-11-14T03:21:25;10.10;99.90
2391;DHT22;22957;50.824;4.360;2022-11-14T03:23:51;10.40;99.90
2391;DHT22;22957;50.824;4.360;2022-11-14T03:26:17;10.30;99.90
2391;DHT22;22957;50.824;4.360;2022-11-14T03:28:43;10.40;99.90
2391;DHT22;22957;50.824;4.360;2022-11-14T03:31:10;10.20;99.90
2391;DHT22;22957;50.824;4.360;2022-11-14T03:33:36;10.30;99.90
2391;DHT22;22957;50.824;4.360;2022-11-14T03:36:03;10.20;99.90
2391;DHT22;22957;50.824;4.360;2022-11-14T03:38:29;10.20;99.90
2391;DHT22;22957;50.824;4.360;2022-11-14T03:40:57;10.20;99.90
2391;DHT22;22957;50.824;4.360;2022-11-14T03:43:23;10.10;99.90
2391;DHT22;22957;50.824;4.360;2022-11-14T03:45:49;9.90;99.90
2391;DHT22;22957;50.824;4.360;2022-11-14T03:48:14;9.80;99.90
2391;DHT22;22957;50.824;4.360;2022-11-14T03:50:41;9.90;99.90
2391;DHT22;22957;50.824;4.360;2022-11-14T03:53:06;10.00;99.90
2391;DHT22;22957;50.824;4.360;2022-11-14T03:55:32;9.60;99.90
2391;DHT22;22957;50.824;4.360;2022-11-14T03:57:58;9.70;99.90
2391;DHT22;22957;50.824;4.360;2022-11-14T04:00:23;9.90;99.90
2391;DHT22;22957;50.824;4.360;2022-11-14T04:02:49;10.00;99.90
2391;DHT22;22957;50.824;4.360;2022-11-14T04:05:15;9.80;99.90
2391;DHT22;22957;50.824;4.360;2022-11-14T04:07:41;9.70;99.90
2391;DHT22;22957;50.824;4.360;2022-11-14T04:10:07;10.00;99.90
2391;DHT22;22957;50.824;4.360;2022-11-14T04:12:32;9.60;99.90
2391;DHT22;22957;50.824;4.360;2022-11-14T04:14:58;9.80;99.90
2391;DHT22;22957;50.824;4.360;2022-11-14T04:17:24;9.50;99.90
2391;DHT22;22957;50.824;4.360;2022-11-14T04:19:49;9.80;99.90
2391;DHT22;22957;50.824;4.360;2022-11-14T04:22:15;9.70;99.90
2391;DHT22;22957;50.824;4.360;2022-11-14T04:24:40;9.80;99.90
2391;DHT22;22957;50.824;4.360;2022-11-14T04:27:06;9.90;99.90
2391;DHT22;22957;50.824;4.360;2022-11-14T04:29:32;9.70;99.90
2391;DHT22;22957;50.824;4.360;2022-11-14T04:31:58;9.70;99.90
2391;DHT22;22957;50.824;4.360;2022-11-14T04:34:23;9.80;99.90
2391;DHT22;22957;50.824;4.360;2022-11-14T04:36:49;9.90;99.90
2391;DHT22;22957;50.824;4.360;2022-11-14T04:39:17;9.80;99.90
2391;DHT22;22957;50.824;4.360;2022-11-14T04:41:42;9.70;99.90
2391;DHT22;22957;50.824;4.360;2022-11-14T04:44:08;9.60;99.90
2391;DHT22;22957;50.824;4.360;2022-11-14T04:46:34;9.90;99.90
2391;DHT22;22957;50.824;4.360;2022-11-14T04:49:00;9.80;99.90
2391;DHT22;22957;50.824;4.360;2022-11-14T04:51:26;9.80;99.90
2391;DHT22;22957;50.824;4.360;2022-11-14T04:53:51;9.80;99.90
2391;DHT22;22957;50.824;4.360;2022-11-14T04:56:17;9.80;99.90
2391;DHT22;22957;50.824;4.360;2022-11-14T04:58:43;9.60;99.90
2391;DHT22;22957;50.824;4.360;2022-11-14T05:01:09;10.00;99.90
2391;DHT22;22957;50.824;4.360;2022-11-14T05:03:35;10.30;99.90
2391;DHT22;22957;50.824;4.360;2022-11-14T05:06:01;10.20;99.90
2391;DHT22;22957;50.824;4.360;2022-11-14T05:08:27;10.00;99.90
2391;DHT22;22957;50.824;4.360;2022-11-14T05:10:53;9.80;99.90
2391;DHT22;22957;50.824;4.360;2022-11-14T05:13:19;10.40;99.90
2391;DHT22;22957;50.824;4.360;2022-11-14T05:15:44;10.20;99.90
2391;DHT22;22957;50.824;4.360;2022-11-14T05:18:10;10.10;99.90
2391;DHT22;22957;50.824;4.360;2022-11-14T05:20:36;10.40;99.90
2391;DHT22;22957;50.824;4.360;2022-11-14T05:23:02;10.10;99.90
2391;DHT22;22957;50.824;4.360;2022-11-14T05:25:27;9.70;99.90
2391;DHT22;22957;50.824;4.360;2022-11-14T05:27:53;9.60;99.90
2391;DHT22;22957;50.824;4.360;2022-11-14T05:30:19;9.90;99.90
2391;DHT22;22957;50.824;4.360;2022-11-14T05:32:45;9.60;99.90
2391;DHT22;22957;50.824;4.360;2022-11-14T05:35:10;9.70;99.90
2391;DHT22;22957;50.824;4.360;2022-11-14T05:37:36;9.40;99.90
2391;DHT22;22957;50.824;4.360;2022-11-14T05:40:03;9.30;99.90
2391;DHT22;22957;50.824;4.360;2022-11-14T05:42:29;9.50;99.90
2391;DHT22;22957;50.824;4.360;2022-11-14T05:44:55;9.50;99.90
2391;DHT22;22957;50.824;4.360;2022-11-14T05:47:20;9.40;99.90
2391;DHT22;22957;50.824;4.360;2022-11-14T05:49:46;9.30;99.90
2391;DHT22;22957;50.824;4.360;2022-11-14T05:52:12;9.40;99.90
2391;DHT22;22957;50.824;4.360;2022-11-14T05:54:38;9.20;99.90
2391;DHT22;22957;50.824;4.360;2022-11-14T05:57:04;9.40;99.90
2391;DHT22;22957;50.824;4.360;2022-11-14T05:59:29;9.30;99.90
2391;DHT22;22957;50.824;4.360;2022-11-14T06:01:55;9.70;99.90
2391;DHT22;22957;50.824;4.360;2022-11-14T06:04:21;9.30;99.90
2391;DHT22;22957;50.824;4.360;2022-11-14T06:06:47;9.40;99.90
2391;DHT22;22957;50.824;4.360;2022-11-14T06:09:12;9.60;99.90
2391;DHT22;22957;50.824;4.360;2022-11-14T06:11:38;9.40;99.90
2391;DHT22;22957;50.824;4.360;2022-11-14T06:14:04;9.50;99.90
2391;DHT22;22957;50.824;4.360;2022-11-14T06:16:29;9.40;99.90
2391;DHT22;22957;50.824;4.360;2022-11-14T06:18:55;9.50;99.90
2391;DHT22;22957;50.824;4.360;2022-11-14T06:21:23;9.70;99.90
2391;DHT22;22957;50.824;4.360;2022-11-14T06:23:49;9.30;99.90
2391;DHT22;22957;50.824;4.360;2022-11-14T06:26:23;9.70;99.90
2391;DHT22;22957;50.824;4.360;2022-11-14T06:28:50;9.50;99.90
2391;DHT22;22957;50.824;4.360;2022-11-14T06:31:17;9.30;99.90
2391;DHT22;22957;50.824;4.360;2022-11-14T06:33:43;9.50;99.90
2391;DHT22;22957;50.824;4.360;2022-11-14T06:36:10;9.50;99.90
2391;DHT22;22957;50.824;4.360;2022-11-14T06:38:37;9.30;99.90
2391;DHT22;22957;50.824;4.360;2022-11-14T06:41:11;9.30;99.90
2391;DHT22;22957;50.824;4.360;2022-11-14T06:43:39;9.80;99.90
2391;DHT22;22957;50.824;4.360;2022-11-14T06:46:06;9.60;99.90
2391;DHT22;22957;50.824;4.360;2022-11-14T06:48:33;9.50;99.90
2391;DHT22;22957;50.824;4.360;2022-11-14T06:51:00;9.60;99.90
2391;DHT22;22957;50.824;4.360;2022-11-14T06:53:28;9.30;99.90
2391;DHT22;22957;50.824;4.360;2022-11-14T06:56:08;9.80;99.90
2391;DHT22;22957;50.824;4.360;2022-11-14T06:58:37;9.30;99.90
2391;DHT22;22957;50.824;4.360;2022-11-14T07:01:19;9.50;99.90
2391;DHT22;22957;50.824;4.360;2022-11-14T07:03:48;9.60;99.90
2391;DHT22;22957;50.824;4.360;2022-11-14T07:06:17;9.60;99.90
2391;DHT22;22957;50.824;4.360;2022-11-14T07:08:43;9.80;99.90
2391;DHT22;22957;50.824;4.360;2022-11-14T07:11:11;9.60;99.90
2391;DHT22;22957;50.824;4.360;2022-11-14T07:13:37;9.70;99.90
2391;DHT22;22957;50.824;4.360;2022-11-14T07:16:04;10.00;99.90
2391;DHT22;22957;50.824;4.360;2022-11-14T07:18:31;10.00;99.90
2391;DHT22;22957;50.824;4.360;2022-11-14T07:21:03;10.30;99.90
2391;DHT22;22957;50.824;4.360;2022-11-14T07:23:30;10.30;99.90
2391;DHT22;22957;50.824;4.360;2022-11-14T07:26:03;10.00;99.90
2391;DHT22;22957;50.824;4.360;2022-11-14T07:28:36;10.00;99.90
2391;DHT22;22957;50.824;4.360;2022-11-14T07:31:07;10.20;99.90
2391;DHT22;22957;50.824;4.360;2022-11-14T07:33:33;10.00;99.90
2391;DHT22;22957;50.824;4.360;2022-11-14T07:35:59;9.90;99.90
2391;DHT22;22957;50.824;4.360;2022-11-14T07:38:25;9.70;99.90
2391;DHT22;22957;50.824;4.360;2022-11-14T07:40:59;10.00;99.90
2391;DHT22;22957;50.824;4.360;2022-11-14T07:43:25;9.80;99.90
2391;DHT22;22957;50.824;4.360;2022-11-14T07:45:51;9.60;99.90
2391;DHT22;22957;50.824;4.360;2022-11-14T07:48:17;9.90;99.90
2391;DHT22;22957;50.824;4.360;2022-11-14T07:50:43;10.10;99.90
2391;DHT22;22957;50.824;4.360;2022-11-14T07:53:09;9.80;99.90
2391;DHT22;22957;50.824;4.360;2022-11-14T07:55:36;9.90;99.90
2391;DHT22;22957;50.824;4.360;2022-11-14T07:58:02;9.90;99.90
2391;DHT22;22957;50.824;4.360;2022-11-14T08:00:28;10.30;99.90
2391;DHT22;22957;50.824;4.360;2022-11-14T08:02:54;9.80;99.90
2391;DHT22;22957;50.824;4.360;2022-11-14T08:05:19;10.90;99.90
2391;DHT22;22957;50.824;4.360;2022-11-14T08:07:50;11.60;99.90
2391;DHT22;22957;50.824;4.360;2022-11-14T08:10:19;12.60;99.90
2391;DHT22;22957;50.824;4.360;2022-11-14T08:12:46;13.60;99.90
2391;DHT22;22957;50.824;4.360;2022-11-14T08:15:14;14.20;99.90
2391;DHT22;22957;50.824;4.360;2022-11-14T08:17:41;14.70;99.90
2391;DHT22;22957;50.824;4.360;2022-11-14T08:20:08;14.80;99.90
2391;DHT22;22957;50.824;4.360;2022-11-14T08:22:34;14.90;99.90
2391;DHT22;22957;50.824;4.360;2022-11-14T08:24:59;15.60;99.90
2391;DHT22;22957;50.824;4.360;2022-11-14T08:27:25;15.40;99.90
2391;DHT22;22957;50.824;4.360;2022-11-14T08:29:51;15.60;99.90
2391;DHT22;22957;50.824;4.360;2022-11-14T08:32:18;15.30;99.90
2391;DHT22;22957;50.824;4.360;2022-11-14T08:34:44;15.20;99.90
2391;DHT22;22957;50.824;4.360;2022-11-14T08:37:10;14.90;99.90
2391;DHT22;22957;50.824;4.360;2022-11-14T08:39:35;15.20;99.90
2391;DHT22;22957;50.824;4.360;2022-11-14T08:42:01;15.90;99.90
2391;DHT22;22957;50.824;4.360;2022-11-14T08:44:27;16.30;99.90
2391;DHT22;22957;50.824;4.360;2022-11-14T08:46:52;15.70;99.90
2391;DHT22;22957;50.824;4.360;2022-11-14T08:49:18;15.50;99.90
2391;DHT22;22957;50.824;4.360;2022-11-14T08:51:44;15.00;99.90
2391;DHT22;22957;50.824;4.360;2022-11-14T08:54:10;14.90;99.90
2391;DHT22;22957;50.824;4.360;2022-11-14T08:56:37;14.50;99.90
2391;DHT22;22957;50.824;4.360;2022-11-14T08:59:03;14.90;99.90
2391;DHT22;22957;50.824;4.360;2022-11-14T09:01:31;14.90;99.90
2391;DHT22;22957;50.824;4.360;2022-11-14T09:03:58;14.70;99.90
2391;DHT22;22957;50.824;4.360;2022-11-14T09:06:24;15.50;99.90
2391;DHT22;22957;50.824;4.360;2022-11-14T09:08:50;14.60;99.90
2391;DHT22;22957;50.824;4.360;2022-11-14T09:11:15;14.90;99.90
2391;DHT22;22957;50.824;4.360;2022-11-14T09:13:44;14.10;99.90
2391;DHT22;22957;50.824;4.360;2022-11-14T09:16:10;14.00;99.90
2391;DHT22;22957;50.824;4.360;2022-11-14T09:18:36;14.00;99.90
2391;DHT22;22957;50.824;4.360;2022-11-14T09:21:04;13.90;99.90
2391;DHT22;22957;50.824;4.360;2022-11-14T09:23:30;14.40;99.90
2391;DHT22;22957;50.824;4.360;2022-11-14T09:25:57;14.50;99.90
2391;DHT22;22957;50.824;4.360;2022-11-14T09:28:27;14.80;99.90
2391;DHT22;22957;50.824;4.360;2022-11-14T09:30:53;15.10;99.90
2391;DHT22;22957;50.824;4.360;2022-11-14T09:33:23;15.60;99.90
2391;DHT22;22957;50.824;4.360;2022-11-14T09:35:56;15.20;99.90
2391;DHT22;22957;50.824;4.360;2022-11-14T09:38:22;15.90;99.90
2391;DHT22;22957;50.824;4.360;2022-11-14T09:43:46;16.50;99.90
2391;DHT22;22957;50.824;4.360;2022-11-14T09:46:31;15.20;99.90
2391;DHT22;22957;50.824;4.360;2022-11-14T09:48:57;14.40;99.90
2391;DHT22;22957;50.824;4.360;2022-11-14T09:51:35;14.40;99.90
2391;DHT22;22957;50.824;4.360;2022-11-14T09:54:19;15.10;99.90
2391;DHT22;22957;50.824;4.360;2022-11-14T09:56:46;14.40;99.90
2391;DHT22;22957;50.824;4.360;2022-11-14T09:59:12;14.90;99.90
2391;DHT22;22957;50.824;4.360;2022-11-14T10:04:49;15.10;99.90
2391;DHT22;22957;50.824;4.360;2022-11-14T10:16:38;14.70;99.90
2391;DHT22;22957;50.824;4.360;2022-11-14T10:27:26;15.10;99.90
2391;DHT22;22957;50.824;4.360;2022-11-14T10:29:55;15.10;99.90
2391;DHT22;22957;50.824;4.360;2022-11-14T10:32:31;16.00;99.90
2391;DHT22;22957;50.824;4.360;2022-11-14T10:35:10;15.80;99.90
2391;DHT22;22957;50.824;4.360;2022-11-14T10:40:25;15.70;99.90
2391;DHT22;22957;50.824;4.360;2022-11-14T10:43:01;15.90;99.90
2391;DHT22;22957;50.824;4.360;2022-11-14T10:45:42;15.80;99.90
2391;DHT22;22957;50.824;4.360;2022-11-14T10:48:13;15.70;99.90
2391;DHT22;22957;50.824;4.360;2022-11-14T10:50:50;16.10;99.90
2391;DHT22;22957;50.824;4.360;2022-11-14T10:53:33;16.00;99.90
2391;DHT22;22957;50.824;4.360;2022-11-14T10:56:01;15.70;99.90
2391;DHT22;22957;50.824;4.360;2022-11-14T10:58:26;15.80;99.90
2391;DHT22;22957;50.824;4.360;2022-11-14T11:00:52;15.00;99.90
2391;DHT22;22957;50.824;4.360;2022-11-14T11:03:18;15.10;99.90
2391;DHT22;22957;50.824;4.360;2022-11-14T11:05:51;14.90;99.90
2391;DHT22;22957;50.824;4.360;2022-11-14T11:08:27;14.50;99.90
2391;DHT22;22957;50.824;4.360;2022-11-14T11:11:12;14.50;99.90
2391;DHT22;22957;50.824;4.360;2022-11-14T11:13:56;15.00;99.90
2391;DHT22;22957;50.824;4.360;2022-11-14T11:16:24;14.90;99.90
2391;DHT22;22957;50.824;4.360;2022-11-14T11:18:50;14.10;99.90
2391;DHT22;22957;50.824;4.360;2022-11-14T11:21:18;14.30;99.90
2391;DHT22;22957;50.824;4.360;2022-11-14T11:23:57;14.40;99.90
2391;DHT22;22957;50.824;4.360;2022-11-14T11:26:23;14.10;99.90
2391;DHT22;22957;50.824;4.360;2022-11-14T11:29:14;13.80;99.90
2391;DHT22;22957;50.824;4.360;2022-11-14T11:31:55;12.20;99.90
2391;DHT22;22957;50.824;4.360;2022-11-14T11:34:31;11.70;99.90
2391;DHT22;22957;50.824;4.360;2022-11-14T11:37:05;11.40;99.90
2391;DHT22;22957;50.824;4.360;2022-11-14T11:39:44;11.30;99.90
2391;DHT22;22957;50.824;4.360;2022-11-14T11:42:17;11.20;99.90
2391;DHT22;22957;50.824;4.360;2022-11-14T11:44:47;10.70;99.90
2391;DHT22;22957;50.824;4.360;2022-11-14T11:47:20;10.90;99.90
2391;DHT22;22957;50.824;4.360;2022-11-14T11:49:48;10.50;99.90
2391;DHT22;22957;50.824;4.360;2022-11-14T11:55:02;11.00;99.90
2391;DHT22;22957;50.824;4.360;2022-11-14T11:57:34;11.00;99.90
2391;DHT22;22957;50.824;4.360;2022-11-14T12:00:15;11.40;99.90
2391;DHT22;22957;50.824;4.360;2022-11-14T12:02:45;10.60;99.90
2391;DHT22;22957;50.824;4.360;2022-11-14T12:11:03;11.00;99.90
2391;DHT22;22957;50.824;4.360;2022-11-14T12:16:24;10.80;99.90
2391;DHT22;22957;50.824;4.360;2022-11-14T12:24:37;10.50;99.90
2391;DHT22;22957;50.824;4.360;2022-11-14T12:27:27;10.90;99.90
2391;DHT22;22957;50.824;4.360;2022-11-14T12:30:12;11.30;99.90
2391;DHT22;22957;50.824;4.360;2022-11-14T12:32:42;11.30;99.90
2391;DHT22;22957;50.824;4.360;2022-11-14T12:35:23;11.10;99.90
2391;DHT22;22957;50.824;4.360;2022-11-14T12:37:52;11.40;99.90
2391;DHT22;22957;50.824;4.360;2022-11-14T12:40:26;11.20;99.90
2391;DHT22;22957;50.824;4.360;2022-11-14T12:42:54;12.00;99.90
2391;DHT22;22957;50.824;4.360;2022-11-14T12:50:50;11.60;99.90
2391;DHT22;22957;50.824;4.360;2022-11-14T13:01:40;10.60;99.90
2391;DHT22;22957;50.824;4.360;2022-11-14T13:06:59;10.30;99.90
2391;DHT22;22957;50.824;4.360;2022-11-14T13:12:31;10.10;99.90
2391;DHT22;22957;50.824;4.360;2022-11-14T13:16:01;10.40;99.90
2391;DHT22;22957;50.824;4.360;2022-11-14T13:27:36;10.10;99.90
2391;DHT22;22957;50.824;4.360;2022-11-14T13:30:05;10.50;99.90
2391;DHT22;22957;50.824;4.360;2022-11-14T13:41:00;9.40;99.90
2391;DHT22;22957;50.824;4.360;2022-11-14T13:51:36;10.10;99.90
2391;DHT22;22957;50.824;4.360;2022-11-14T13:54:10;10.40;99.90
2391;DHT22;22957;50.824;4.360;2022-11-14T14:02:15;10.60;99.90
2391;DHT22;22957;50.824;4.360;2022-11-14T14:07:27;10.50;99.90
2391;DHT22;22957;50.824;4.360;2022-11-14T14:16:04;10.70;99.90
2391;DHT22;22957;50.824;4.360;2022-11-14T14:24:24;11.00;99.90
2391;DHT22;22957;50.824;4.360;2022-11-14T14:27:00;10.90;99.90
2391;DHT22;22957;50.824;4.360;2022-11-14T14:29:39;11.00;99.90
2391;DHT22;22957;50.824;4.360;2022-11-14T14:32:12;10.50;99.90
2391;DHT22;22957;50.824;4.360;2022-11-14T14:34:38;10.60;99.90
2391;DHT22;22957;50.824;4.360;2022-11-14T14:37:17;10.80;99.90
2391;DHT22;22957;50.824;4.360;2022-11-14T14:40:01;10.80;99.90
2391;DHT22;22957;50.824;4.360;2022-11-14T14:42:33;10.30;99.90
2391;DHT22;22957;50.824;4.360;2022-11-14T14:45:02;10.60;99.90
2391;DHT22;22957;50.824;4.360;2022-11-14T14:49:58;10.20;99.90
2391;DHT22;22957;50.824;4.360;2022-11-14T14:52:34;10.10;99.90
2391;DHT22;22957;50.824;4.360;2022-11-14T14:55:05;9.80;99.90
2391;DHT22;22957;50.824;4.360;2022-11-14T14:57:31;10.00;99.90
2391;DHT22;22957;50.824;4.360;2022-11-14T15:00:01;10.20;99.90
2391;DHT22;22957;50.824;4.360;2022-11-14T15:02:28;10.10;99.90
2391;DHT22;22957;50.824;4.360;2022-11-14T15:04:54;10.20;99.90
2391;DHT22;22957;50.824;4.360;2022-11-14T15:07:23;10.40;99.90
2391;DHT22;22957;50.824;4.360;2022-11-14T15:09:58;10.10;99.90
2391;DHT22;22957;50.824;4.360;2022-11-14T15:12:25;10.50;99.90
2391;DHT22;22957;50.824;4.360;2022-11-14T15:14:55;10.50;99.90
2391;DHT22;22957;50.824;4.360;2022-11-14T15:17:21;10.70;99.90
2391;DHT22;22957;50.824;4.360;2022-11-14T15:19:50;10.60;99.90
2391;DHT22;22957;50.824;4.360;2022-11-14T15:24:42;10.80;99.90
2391;DHT22;22957;50.824;4.360;2022-11-14T15:27:16;10.70;99.90
2391;DHT22;22957;50.824;4.360;2022-11-14T15:29:47;11.10;99.90
2391;DHT22;22957;50.824;4.360;2022-11-14T15:32:23;10.70;99.90
2391;DHT22;22957;50.824;4.360;2022-11-14T15:40:31;11.00;99.90
2391;DHT22;22957;50.824;4.360;2022-11-14T15:42:57;10.10;99.90
2391;DHT22;22957;50.824;4.360;2022-11-14T15:45:38;10.60;99.90
2391;DHT22;22957;50.824;4.360;2022-11-14T15:48:12;10.10;99.90
2391;DHT22;22957;50.824;4.360;2022-11-14T15:50:49;10.10;99.90
2391;DHT22;22957;50.824;4.360;2022-11-14T15:55:40;10.00;99.90
2391;DHT22;22957;50.824;4.360;2022-11-14T15:58:11;10.40;99.90
2391;DHT22;22957;50.824;4.360;2022-11-14T16:00:46;10.70;99.90
2391;DHT22;22957;50.824;4.360;2022-11-14T16:03:17;10.70;99.90
2391;DHT22;22957;50.824;4.360;2022-11-14T16:05:43;10.60;99.90
2391;DHT22;22957;50.824;4.360;2022-11-14T16:08:10;10.50;99.90
2391;DHT22;22957;50.824;4.360;2022-11-14T16:10:40;10.70;99.90
2391;DHT22;22957;50.824;4.360;2022-11-14T16:13:05;10.20;99.90
2391;DHT22;22957;50.824;4.360;2022-11-14T16:15:31;10.60;99.90
2391;DHT22;22957;50.824;4.360;2022-11-14T16:17:57;10.30;99.90
2391;DHT22;22957;50.824;4.360;2022-11-14T16:20:27;10.10;99.90
2391;DHT22;22957;50.824;4.360;2022-11-14T16:22:53;10.60;99.90
2391;DHT22;22957;50.824;4.360;2022-11-14T16:25:25;10.60;99.90
2391;DHT22;22957;50.824;4.360;2022-11-14T16:27:51;10.30;99.90
2391;DHT22;22957;50.824;4.360;2022-11-14T16:30:18;10.40;99.90
2391;DHT22;22957;50.824;4.360;2022-11-14T16:32:45;10.70;99.90
2391;DHT22;22957;50.824;4.360;2022-11-14T16:35:17;10.10;99.90
2391;DHT22;22957;50.824;4.360;2022-11-14T16:37:43;9.80;99.90
2391;DHT22;22957;50.824;4.360;2022-11-14T16:40:16;10.50;99.90
2391;DHT22;22957;50.824;4.360;2022-11-14T16:42:44;10.50;99.90
2391;DHT22;22957;50.824;4.360;2022-11-14T16:45:10;10.50;99.90
2391;DHT22;22957;50.824;4.360;2022-11-14T16:47:36;10.50;99.90
2391;DHT22;22957;50.824;4.360;2022-11-14T16:50:02;10.60;99.90
2391;DHT22;22957;50.824;4.360;2022-11-14T16:52:28;10.30;99.90
2391;DHT22;22957;50.824;4.360;2022-11-14T16:54:53;10.70;99.90
2391;DHT22;22957;50.824;4.360;2022-11-14T16:57:19;10.50;99.90
2391;DHT22;22957;50.824;4.360;2022-11-14T16:59:45;10.50;99.90
2391;DHT22;22957;50.824;4.360;2022-11-14T17:02:14;10.60;99.90
2391;DHT22;22957;50.824;4.360;2022-11-14T17:04:41;10.40;99.90
2391;DHT22;22957;50.824;4.360;2022-11-14T17:07:08;10.60;99.90
2391;DHT22;22957;50.824;4.360;2022-11-14T17:09:33;10.40;99.90
2391;DHT22;22957;50.824;4.360;2022-11-14T17:11:59;10.90;99.90
2391;DHT22;22957;50.824;4.360;2022-11-14T17:14:25;10.90;99.90
2391;DHT22;22957;50.824;4.360;2022-11-14T17:16:51;10.50;99.90
2391;DHT22;22957;50.824;4.360;2022-11-14T17:19:16;10.70;99.90
2391;DHT22;22957;50.824;4.360;2022-11-14T17:21:43;11.00;99.90
2391;DHT22;22957;50.824;4.360;2022-11-14T17:24:09;10.80;99.90
2391;DHT22;22957;50.824;4.360;2022-11-14T17:26:34;10.70;99.90
2391;DHT22;22957;50.824;4.360;2022-11-14T17:29:05;10.40;99.90
2391;DHT22;22957;50.824;4.360;2022-11-14T17:31:32;10.60;99.90
2391;DHT22;22957;50.824;4.360;2022-11-14T17:33:59;10.20;99.90
2391;DHT22;22957;50.824;4.360;2022-11-14T17:36:27;10.60;99.90
2391;DHT22;22957;50.824;4.360;2022-11-14T17:38:54;10.50;99.90
2391;DHT22;22957;50.824;4.360;2022-11-14T17:41:20;10.60;99.90
2391;DHT22;22957;50.824;4.360;2022-11-14T17:43:46;10.50;99.90
2391;DHT22;22957;50.824;4.360;2022-11-14T17:46:12;10.90;99.90
2391;DHT22;22957;50.824;4.360;2022-11-14T17:48:38;10.60;99.90
2391;DHT22;22957;50.824;4.360;2022-11-14T17:51:05;10.10;99.90
2391;DHT22;22957;50.824;4.360;2022-11-14T17:53:32;10.50;99.90
2391;DHT22;22957;50.824;4.360;2022-11-14T17:55:58;10.30;99.90
2391;DHT22;22957;50.824;4.360;2022-11-14T17:58:26;10.40;99.90
2391;DHT22;22957;50.824;4.360;2022-11-14T18:00:52;10.60;99.90
2391;DHT22;22957;50.824;4.360;2022-11-14T18:03:18;10.70;99.90